Lincoln City, Indiana
Current Conditions -  °F | °C
As of 1:55 AM on Wednesday 26 Nov 2014 (Local Time) from KHNB Reporting Station
Clear Clear  
Wind Chill: 25°   Ceiling: Unl
Heat Index: 25°   Visibility: 5mi
Dew Point: 21°   Wind: 3mph
Humidity: 86%   Direction: 350°N
Pressure: 30.16"   Gusts: NA
Location:  38.12°N, 87°W
Report Text: KHNB 260755Z AUTO 35003KT 5SM CLR M04/M06 A3016 RMK AO1
Loading
Personal Weather Stations






























Interactive Weather Map New forecast layout! Learn more

10-Day Weather Forecast

Advertisements
Track Severe Weather on mobile